Time;durP1;ratioP1;P1;durP2;ratioP2;P2;SDS_P1;SDS_P2;PMS_P1;PMS_P2;Temp;Humidity;BMP_temperature;BMP_pressure;BME280_temperature;BME280_humidity;BME280_pressure;Samples;Min_cycle;Max_cycle;Signal;HPM_P1;HPM_P2
2024/04/03 00:02:25;;;;;;;1.50;0.70;;;6.40;99.90;;;;;;5022663;28;20399;-85
2024/04/03 00:04:51;;;;;;;2.42;1.08;;;;;;;;;;5021854;28;20401;-83
2024/04/03 00:07:16;;;;;;;1.60;1.15;;;6.40;99.90;;;;;;5038675;28;20732;-83
2024/04/03 00:09:42;;;;;;;2.40;1.10;;;6.90;99.90;;;;;;5021318;28;20410;-83
2024/04/03 00:12:08;;;;;;;1.50;1.00;;;;;;;;;;5010833;28;20885;-83
2024/04/03 00:14:33;;;;;;;1.30;0.80;;;6.50;99.90;;;;;;5040791;28;20387;-83
2024/04/03 00:16:59;;;;;;;2.60;1.27;;;6.50;99.90;;;;;;5019703;28;20387;-83
2024/04/03 00:19:24;;;;;;;1.50;1.17;;;6.70;99.90;;;;;;5038748;28;20486;-83
2024/04/03 00:21:50;;;;;;;2.70;1.00;;;6.80;99.90;;;;;;5038895;28;20391;-83
2024/04/03 00:24:16;;;;;;;0.90;0.80;;;6.30;99.90;;;;;;5021312;28;20399;-84
2024/04/03 00:26:42;;;;;;;1.67;0.90;;;;;;;;;;5037650;28;20737;-84
2024/04/03 00:29:11;;;;;;;2.30;1.15;;;6.70;99.90;;;;;;5027799;28;20429;-84
2024/04/03 00:31:37;;;;;;;2.17;1.08;;;5.90;99.90;;;;;;5038524;28;20480;-83
2024/04/03 00:34:03;;;;;;;1.60;0.90;;;;;;;;;;5038520;28;20558;-84
2024/04/03 00:36:30;;;;;;;2.72;1.13;;;;;;;;;;5037994;28;20411;-83
2024/04/03 00:38:56;;;;;;;2.72;1.20;;;;;;;;;;5038040;28;20391;-83
2024/04/03 00:41:22;;;;;;;2.55;1.20;;;;;;;;;;5053836;28;20438;-83
2024/04/03 00:43:49;;;;;;;1.65;1.10;;;6.40;99.90;;;;;;5037970;28;20382;-83
2024/04/03 00:46:15;;;;;;;1.50;1.00;;;6.50;99.90;;;;;;5022740;28;20397;-84
2024/04/03 00:48:42;;;;;;;2.17;1.40;;;6.40;99.90;;;;;;5045867;23;20442;-80
2024/04/03 00:51:09;;;;;;;3.50;1.50;;;6.50;99.90;;;;;;5043606;28;20373;-80
2024/04/03 00:53:35;;;;;;;3.60;1.10;;;6.50;99.90;;;;;;5067719;28;20373;-80
2024/04/03 00:56:01;;;;;;;3.00;1.37;;;6.40;99.90;;;;;;5074826;28;20389;-80
2024/04/03 00:58:27;;;;;;;2.20;1.23;;;;;;;;;;5058073;28;20381;-81
2024/04/03 01:00:53;;;;;;;1.55;0.90;;;;;;;;;;5063268;28;20389;-80
2024/04/03 01:03:19;;;;;;;2.15;0.70;;;7.10;99.90;;;;;;5039335;28;20390;-81
2024/04/03 01:05:44;;;;;;;1.55;0.88;;;6.30;99.90;;;;;;5045059;28;20377;-79
2024/04/03 01:08:10;;;;;;;2.33;1.00;;;6.60;99.90;;;;;;5042897;28;20389;-80
2024/04/03 01:10:35;;;;;;;3.50;1.80;;;6.60;99.90;;;;;;5063519;28;20413;-80
2024/04/03 01:13:01;;;;;;;1.90;0.90;;;;;;;;;;5061462;28;20393;-80
2024/04/03 01:15:29;;;;;;;1.25;0.70;;;7.10;99.90;;;;;;5055433;28;20390;-80
2024/04/03 01:17:55;;;;;;;1.60;1.00;;;6.60;99.90;;;;;;5053212;28;20386;-81
2024/04/03 01:20:21;;;;;;;2.23;1.00;;;;;;;;;;5039028;28;20405;-81
2024/04/03 01:22:47;;;;;;;1.30;1.00;;;7.00;99.90;;;;;;5034268;28;20399;-81
2024/04/03 01:25:12;;;;;;;1.10;0.90;;;7.00;99.90;;;;;;5037761;28;20403;-81
2024/04/03 01:27:38;;;;;;;1.30;0.83;;;;;;;;;;5056475;28;20494;-80
2024/04/03 01:30:04;;;;;;;1.30;0.80;;;7.40;99.90;;;;;;5045670;28;20444;-80
2024/04/03 01:32:30;;;;;;;1.40;0.80;;;7.00;99.90;;;;;;5044586;28;20970;-79
2024/04/03 01:34:55;;;;;;;1.40;0.90;;;;;;;;;;5043236;28;20401;-81
2024/04/03 01:37:21;;;;;;;3.30;1.03;;;;;;;;;;5016960;28;20402;-81
2024/04/03 01:39:48;;;;;;;4.20;1.00;;;;;;;;;;5032642;28;20390;-81
2024/04/03 01:42:14;;;;;;;0.90;0.80;;;;;;;;;;5032777;28;20399;-81
2024/04/03 01:44:40;;;;;;;1.75;0.77;;;;;;;;;;5015756;28;20402;-81
2024/04/03 01:47:05;;;;;;;1.50;1.00;;;7.00;99.90;;;;;;5015417;28;20439;-80
2024/04/03 01:49:31;;;;;;;1.45;0.90;;;7.30;99.90;;;;;;5038668;28;20401;-81
2024/04/03 01:51:57;;;;;;;1.30;0.70;;;7.30;99.90;;;;;;5043906;28;20382;-81
2024/04/03 01:54:23;;;;;;;2.60;0.88;;;;;;;;;;5015456;28;20399;-80
2024/04/03 01:56:48;;;;;;;0.98;0.70;;;7.30;99.90;;;;;;5030198;28;20771;-80
2024/04/03 01:59:15;;;;;;;1.00;0.70;;;6.90;99.90;;;;;;5033094;28;20387;-81
2024/04/03 02:01:40;;;;;;;1.60;0.70;;;7.50;99.90;;;;;;5033109;28;20391;-81
2024/04/03 02:04:06;;;;;;;1.60;1.00;;;7.60;99.90;;;;;;5041592;28;20731;-81
2024/04/03 02:06:31;;;;;;;1.70;0.90;;;7.40;99.90;;;;;;5053328;28;20393;-80
2024/04/03 02:08:57;;;;;;;1.50;0.80;;;;;;;;;;5034611;28;20412;-80
2024/04/03 02:11:23;;;;;;;1.30;0.90;;;7.50;99.90;;;;;;5034430;28;20807;-81
2024/04/03 02:13:48;;;;;;;1.50;0.90;;;7.40;99.90;;;;;;5019861;28;20385;-80
2024/04/03 02:16:14;;;;;;;1.30;1.00;;;7.40;99.90;;;;;;5051436;28;20385;-81
2024/04/03 02:18:39;;;;;;;1.67;1.00;;;7.60;99.90;;;;;;5052638;28;20413;-80
2024/04/03 02:21:05;;;;;;;1.23;0.77;;;;;;;;;;5035473;28;20473;-80
2024/04/03 02:23:31;;;;;;;2.40;1.00;;;;;;;;;;5049310;28;20759;-81
2024/04/03 02:25:57;;;;;;;1.10;0.60;;;8.00;99.90;;;;;;5014758;28;20466;-80
2024/04/03 02:28:23;;;;;;;1.10;0.88;;;7.80;99.90;;;;;;5032605;28;20421;-80
2024/04/03 02:30:58;;;;;;;1.70;0.80;;;7.80;99.90;;;;;;5034199;28;20523;-80
2024/04/03 02:33:23;;;;;;;1.60;1.00;;;7.50;99.90;;;;;;5034118;28;20385;-81
2024/04/03 02:35:49;;;;;;;1.90;1.00;;;7.90;99.90;;;;;;5052047;28;20392;-80
2024/04/03 02:38:14;;;;;;;2.10;1.00;;;7.80;99.90;;;;;;5034755;28;20401;-80
2024/04/03 02:40:40;;;;;;;2.30;0.70;;;7.40;99.90;;;;;;5024186;28;20437;-79
2024/04/03 02:43:06;;;;;;;0.77;0.60;;;;;;;;;;5032297;28;20462;-80
2024/04/03 02:45:31;;;;;;;1.73;0.80;;;7.70;99.90;;;;;;5015260;28;20418;-80
2024/04/03 02:47:59;;;;;;;0.90;0.70;;;8.30;99.90;;;;;;5032074;28;20394;-80
2024/04/03 02:50:25;;;;;;;0.60;0.60;;;7.60;99.90;;;;;;5052665;28;20393;-79
2024/04/03 02:52:51;;;;;;;1.30;1.00;;;7.40;99.90;;;;;;5054225;28;20916;-81
2024/04/03 02:55:17;;;;;;;1.60;0.90;;;7.80;99.90;;;;;;5056495;28;20439;-80
2024/04/03 02:57:43;;;;;;;1.25;0.80;;;;;;;;;;5037236;28;20385;-80
2024/04/03 03:00:09;;;;;;;1.30;0.90;;;8.00;99.90;;;;;;5038885;28;20921;-80
2024/04/03 03:02:34;;;;;;;0.70;0.50;;;7.70;99.90;;;;;;5049741;28;20480;-80
2024/04/03 03:05:00;;;;;;;0.80;0.60;;;8.00;99.90;;;;;;5041240;28;20413;-79
2024/04/03 03:07:25;;;;;;;1.08;0.65;;;7.70;99.90;;;;;;5056073;28;20397;-81
2024/04/03 03:09:51;;;;;;;0.80;0.63;;;7.80;99.90;;;;;;5071816;28;20448;-82
2024/04/03 03:12:16;;;;;;;1.80;0.70;;;7.90;99.90;;;;;;5048011;28;20741;-82
2024/04/03 03:14:42;;;;;;;1.00;0.70;;;7.70;99.90;;;;;;5050925;28;20397;-80
2024/04/03 03:17:08;;;;;;;0.90;0.60;;;;;;;;;;5031192;28;20448;-79
2024/04/03 03:19:33;;;;;;;2.40;0.80;;;7.90;99.90;;;;;;5028650;28;20391;-79
2024/04/03 03:21:59;;;;;;;0.73;0.60;;;7.70;99.90;;;;;;5025357;28;20397;-80
2024/04/03 03:24:24;;;;;;;1.80;0.80;;;7.70;99.90;;;;;;5026100;28;20402;-80
2024/04/03 03:26:50;;;;;;;1.10;0.70;;;6.20;99.90;;;;;;5035894;28;20434;-80
2024/04/03 03:29:16;;;;;;;2.50;0.70;;;8.10;99.90;;;;;;5036088;28;20967;-80
2024/04/03 03:31:41;;;;;;;1.30;0.80;;;7.80;99.90;;;;;;5035859;28;20390;-80
2024/04/03 03:34:07;;;;;;;1.13;0.60;;;7.60;99.90;;;;;;5035740;28;20887;-80
2024/04/03 03:36:33;;;;;;;0.80;0.60;;;;;;;;;;5035485;28;20423;-80
2024/04/03 03:38:58;;;;;;;1.45;0.73;;;7.80;99.90;;;;;;5035963;28;20810;-80
2024/04/03 03:41:24;;;;;;;2.27;0.80;;;7.60;99.90;;;;;;5035740;28;20956;-80
2024/04/03 03:43:49;;;;;;;1.67;0.88;;;7.80;99.90;;;;;;5032400;28;20889;-81
2024/04/03 03:46:16;;;;;;;1.40;0.90;;;7.90;99.90;;;;;;5055489;28;20405;-79
2024/04/03 03:54:11;;;;;;;0.98;0.70;;;7.80;99.90;;;;;;5018562;28;20472;-80
2024/04/03 03:56:36;;;;;;;2.47;0.70;;;7.60;99.90;;;;;;4997746;28;20404;-80
2024/04/03 03:59:02;;;;;;;1.08;0.60;;;7.70;99.90;;;;;;4997920;28;20392;-80
2024/04/03 04:01:27;;;;;;;0.73;0.50;;;8.30;99.90;;;;;;5015416;28;20428;-80
2024/04/03 04:03:53;;;;;;;1.73;0.80;;;;;;;;;;5047567;28;20439;-80
2024/04/03 04:06:19;;;;;;;1.10;0.60;;;7.70;99.90;;;;;;5034742;28;20415;-80
2024/04/03 04:08:44;;;;;;;1.07;0.70;;;8.20;99.90;;;;;;5045903;28;20447;-81
2024/04/03 04:11:10;;;;;;;1.60;0.80;;;7.80;99.90;;;;;;5036375;28;20402;-80
2024/04/03 04:13:35;;;;;;;0.90;0.70;;;7.20;99.90;;;;;;5036684;28;20500;-80
2024/04/03 04:16:02;;;;;;;2.10;0.70;;;;;;;;;;5054102;28;20385;-81
2024/04/03 04:18:27;;;;;;;1.80;0.80;;;8.00;99.90;;;;;;5047928;28;20485;-79
2024/04/03 04:20:55;;;;;;;1.50;0.90;;;7.80;99.90;;;;;;5033296;28;20903;-80
2024/04/03 04:23:21;;;;;;;1.40;0.80;;;8.20;99.90;;;;;;5022499;28;20539;-80
2024/04/03 04:26:04;;;;;;;1.10;0.70;;;7.70;99.90;;;;;;5035102;28;20406;-80
2024/04/03 04:28:34;;;;;;;0.90;0.60;;;7.80;99.90;;;;;;5034753;28;20402;-80
2024/04/03 04:31:01;;;;;;;3.92;1.02;;;8.20;99.90;;;;;;5016500;28;20379;-79
2024/04/03 04:33:31;;;;;;;2.10;0.80;;;8.10;99.90;;;;;;5024425;28;20527;-79
2024/04/03 04:35:58;;;;;;;1.70;0.70;;;7.80;99.90;;;;;;5054373;28;20388;-80
2024/04/03 04:38:25;;;;;;;0.70;0.70;;;8.10;99.90;;;;;;5047808;28;20930;-81
2024/04/03 04:40:58;;;;;;;1.40;0.70;;;8.00;99.90;;;;;;5034596;28;20810;-80
2024/04/03 04:43:24;;;;;;;1.00;0.77;;;7.70;99.90;;;;;;5030065;28;20437;-79
2024/04/03 04:46:03;;;;;;;2.20;0.82;;;7.60;99.90;;;;;;5036315;28;20394;-79
2024/04/03 04:48:31;;;;;;;2.00;0.90;;;8.20;99.90;;;;;;5034095;28;20412;-81
2024/04/03 04:51:01;;;;;;;1.38;0.90;;;;;;;;;;5054170;28;20409;-81
2024/04/03 04:53:27;;;;;;;1.60;1.00;;;7.80;99.90;;;;;;5041801;28;20383;-81
2024/04/03 04:56:04;;;;;;;2.40;1.00;;;7.90;99.90;;;;;;5025627;28;20740;-81
2024/04/03 04:58:29;;;;;;;1.42;0.90;;;7.70;99.90;;;;;;5015959;28;20437;-81
2024/04/03 05:01:06;;;;;;;1.00;0.70;;;7.90;99.90;;;;;;5034222;28;20794;-80
2024/04/03 05:03:32;;;;;;;0.70;0.70;;;8.20;99.90;;;;;;5046985;28;20389;-81
2024/04/03 05:05:58;;;;;;;0.93;0.80;;;8.40;99.90;;;;;;5053720;28;20385;-80
2024/04/03 05:08:23;;;;;;;1.17;1.08;;;8.50;99.90;;;;;;5035822;28;20799;-80
2024/04/03 05:10:59;;;;;;;0.88;0.70;;;;;;;;;;5054003;28;20382;-80
2024/04/03 05:13:27;;;;;;;2.30;1.00;;;8.70;99.90;;;;;;5032608;28;20544;-79
2024/04/03 05:15:52;;;;;;;1.60;0.98;;;8.30;99.90;;;;;;5043544;28;20386;-79
2024/04/03 05:18:19;;;;;;;3.00;1.15;;;;;;;;;;5044887;28;20396;-80
2024/04/03 05:20:45;;;;;;;1.80;0.80;;;8.20;99.90;;;;;;5037995;28;20947;-81
2024/04/03 05:23:11;;;;;;;2.00;0.70;;;8.70;99.90;;;;;;5032931;28;20395;-81
2024/04/03 05:25:36;;;;;;;1.63;0.90;;;8.60;99.90;;;;;;5030605;28;20395;-82
2024/04/03 05:28:02;;;;;;;1.38;0.80;;;;;;;;;;5036635;28;20390;-81
2024/04/03 05:30:28;;;;;;;3.10;1.00;;;8.10;99.90;;;;;;5045115;28;20406;-81
2024/04/03 05:32:54;;;;;;;1.85;1.15;;;7.20;99.90;;;;;;5045665;28;20391;-82
2024/04/03 05:35:21;;;;;;;5.10;1.20;;;;;;;;;;5037383;28;20412;-81
2024/04/03 05:37:47;;;;;;;1.80;1.27;;;;;;;;;;5062149;28;20382;-80
2024/04/03 05:40:13;;;;;;;1.60;1.00;;;;;;;;;;5044907;28;20439;-80
2024/04/03 05:42:39;;;;;;;2.90;1.10;;;8.30;99.90;;;;;;5057626;28;20385;-81
2024/04/03 05:45:06;;;;;;;2.30;1.00;;;8.70;99.90;;;;;;5055026;28;20786;-82
2024/04/03 05:47:32;;;;;;;2.50;1.05;;;8.30;99.90;;;;;;5053564;28;20416;-81
2024/04/03 05:49:58;;;;;;;1.53;1.13;;;;;;;;;;5035679;28;20479;-82
2024/04/03 05:52:24;;;;;;;2.58;1.42;;;;;;;;;;5035710;28;20385;-80
2024/04/03 05:54:50;;;;;;;3.53;1.67;;;9.10;99.90;;;;;;5052938;28;20437;-80
2024/04/03 05:57:19;;;;;;;1.20;1.00;;;8.50;99.90;;;;;;5058013;28;20381;-81
2024/04/03 05:59:45;;;;;;;2.38;1.40;;;;;;;;;;5046688;28;20382;-80
2024/04/03 06:02:12;;;;;;;2.05;1.20;;;;;;;;;;5046675;28;21009;-80
2024/04/03 06:04:38;;;;;;;3.38;1.60;;;;;;;;;;5045365;28;20787;-81
2024/04/03 06:07:04;;;;;;;3.30;1.10;;;8.80;99.90;;;;;;5032320;28;20395;-81
2024/04/03 06:09:32;;;;;;;2.50;1.10;;;9.60;99.90;;;;;;5034139;28;20490;-80
2024/04/03 06:11:58;;;;;;;1.70;1.30;;;;;;;;;;5032854;28;20387;-80
2024/04/03 06:14:24;;;;;;;2.20;0.90;;;9.20;99.90;;;;;;5034155;28;20389;-80
2024/04/03 06:16:49;;;;;;;2.65;1.40;;;9.40;99.90;;;;;;5035194;28;20381;-80
2024/04/03 06:19:15;;;;;;;1.90;1.00;;;9.70;99.90;;;;;;5053008;28;20443;-81
2024/04/03 06:21:44;;;;;;;0.90;0.70;;;10.20;99.90;;;;;;5036217;28;20388;-81
2024/04/03 06:24:10;;;;;;;0.60;0.50;;;10.20;99.90;;;;;;5044347;28;20398;-80
2024/04/03 06:26:36;;;;;;;2.00;0.70;;;11.30;99.90;;;;;;5015144;28;20434;-80
2024/04/03 06:29:03;;;;;;;1.30;0.93;;;11.00;99.90;;;;;;5019327;28;20413;-82
2024/04/03 06:31:30;;;;;;;1.10;0.70;;;10.90;99.90;;;;;;5018922;28;20779;-80
2024/04/03 06:33:58;;;;;;;1.35;0.90;;;;;;;;;;5025195;28;20444;-81
2024/04/03 06:36:25;;;;;;;1.58;0.90;;;11.00;99.90;;;;;;5046677;28;20386;-81
2024/04/03 06:38:51;;;;;;;1.60;0.77;;;;;;;;;;5022843;28;20406;-81
2024/04/03 06:41:16;;;;;;;1.50;1.30;;;;;;;;;;5037053;28;20391;-81
2024/04/03 06:43:42;;;;;;;1.63;0.90;;;10.40;99.90;;;;;;5037386;28;20402;-82
2024/04/03 06:46:08;;;;;;;1.52;0.90;;;;;;;;;;5035750;28;20390;-81
2024/04/03 06:48:35;;;;;;;1.85;0.77;;;;;;;;;;5018702;28;20476;-81
2024/04/03 06:51:00;;;;;;;1.20;0.60;;;11.40;99.90;;;;;;5019563;28;20422;-82
2024/04/03 06:53:26;;;;;;;2.10;0.60;;;10.80;99.90;;;;;;5036500;28;20387;-82
2024/04/03 06:55:59;;;;;;;1.30;1.00;;;11.60;99.90;;;;;;5037720;28;20389;-81
2024/04/03 06:58:26;;;;;;;2.25;1.02;;;11.70;99.90;;;;;;5056863;28;20373;-83
2024/04/03 07:00:52;;;;;;;1.38;0.90;;;;;;;;;;5057445;28;20377;-82
2024/04/03 07:03:18;;;;;;;1.80;1.00;;;;;;;;;;5039388;28;20385;-81
2024/04/03 07:05:44;;;;;;;2.28;0.80;;;11.50;99.90;;;;;;5039104;28;20394;-81
2024/04/03 07:08:13;;;;;;;1.85;0.70;;;11.10;99.90;;;;;;5036908;28;20383;-80
2024/04/03 07:10:39;;;;;;;1.10;0.63;;;;;;;;;;5036961;28;20445;-81
2024/04/03 07:13:05;;;;;;;1.53;0.83;;;;;;;;;;5023201;28;20386;-81
2024/04/03 07:15:34;;;;;;;1.20;0.77;;;12.00;99.90;;;;;;5038416;28;20440;-81
2024/04/03 07:18:00;;;;;;;0.95;0.60;;;11.40;99.90;;;;;;5056177;28;20389;-82
2024/04/03 07:20:27;;;;;;;0.80;0.53;;;;;;;;;;5039087;28;20475;-80
2024/04/03 07:22:54;;;;;;;1.20;0.50;;;11.50;99.90;;;;;;5042960;28;20395;-80
2024/04/03 07:25:20;;;;;;;0.60;0.40;;;11.60;99.90;;;;;;5040262;28;20751;-81
2024/04/03 07:27:46;;;;;;;1.70;0.50;;;;;;;;;;5038753;28;20394;-79
2024/04/03 07:30:12;;;;;;;1.17;0.80;;;11.80;99.90;;;;;;5037684;28;20505;-83
2024/04/03 07:32:39;;;;;;;1.70;0.80;;;11.90;99.90;;;;;;5043418;28;20878;-81
2024/04/03 07:35:04;;;;;;;0.90;0.50;;;11.50;99.90;;;;;;5047900;28;20375;-82
2024/04/03 07:37:30;;;;;;;0.70;0.50;;;12.10;99.90;;;;;;5046576;28;20454;-83
2024/04/03 07:39:56;;;;;;;2.20;0.50;;;;;;;;;;5044143;28;20403;-82
2024/04/03 07:42:22;;;;;;;1.10;0.70;;;;;;;;;;5026614;28;20395;-81
2024/04/03 07:44:49;;;;;;;1.50;0.50;;;11.80;99.90;;;;;;5048327;28;20417;-81
2024/04/03 07:47:15;;;;;;;0.70;0.60;;;12.50;99.90;;;;;;5049487;28;20808;-82
2024/04/03 07:49:40;;;;;;;0.63;0.50;;;12.70;99.90;;;;;;5049984;28;20421;-82
2024/04/03 07:52:06;;;;;;;0.70;0.50;;;12.30;99.90;;;;;;5070500;28;20381;-82
2024/04/03 07:54:31;;;;;;;0.80;0.50;;;11.90;99.90;;;;;;5052818;28;20378;-82
2024/04/03 07:56:57;;;;;;;0.90;0.50;;;12.70;99.90;;;;;;5065618;28;20938;-82
2024/04/03 07:59:23;;;;;;;1.30;0.50;;;;;;;;;;5048248;28;20393;-81
2024/04/03 08:01:48;;;;;;;0.90;0.50;;;12.40;99.90;;;;;;5050781;28;20383;-81
2024/04/03 08:04:15;;;;;;;0.53;0.40;;;12.20;99.90;;;;;;5050847;28;20459;-83
2024/04/03 08:06:41;;;;;;;0.90;0.50;;;12.40;99.90;;;;;;5049454;28;20568;-84
2024/04/03 08:09:06;;;;;;;1.00;0.52;;;12.40;99.90;;;;;;5052070;28;20432;-84
2024/04/03 08:11:32;;;;;;;0.80;0.30;;;12.90;99.90;;;;;;5050793;28;20457;-83
2024/04/03 08:13:59;;;;;;;1.02;0.50;;;;;;;;;;5049776;28;20377;-82
2024/04/03 08:16:25;;;;;;;1.30;0.40;;;;;;;;;;5046867;28;20389;-82
2024/04/03 08:18:50;;;;;;;0.50;0.30;;;13.00;99.90;;;;;;5049646;28;20387;-82
2024/04/03 08:21:16;;;;;;;0.57;0.40;;;;;;;;;;5037745;28;20387;-82
2024/04/03 08:23:42;;;;;;;1.50;0.65;;;12.50;99.90;;;;;;5049102;28;20390;-82
2024/04/03 08:26:09;;;;;;;0.87;0.40;;;12.80;99.90;;;;;;5018916;28;20436;-81
2024/04/03 08:28:40;;;;;;;0.90;0.50;;;12.50;99.90;;;;;;5037022;28;20403;-81
2024/04/03 08:31:16;;;;;;;1.10;0.50;;;11.20;99.90;;;;;;5037217;28;20379;-82
2024/04/03 08:33:42;;;;;;;0.80;0.50;;;;;;;;;;5050286;28;20781;-82
2024/04/03 08:36:10;;;;;;;0.55;0.30;;;12.20;99.90;;;;;;5036416;28;20391;-81
2024/04/03 08:38:36;;;;;;;0.70;0.50;;;11.80;99.90;;;;;;5036117;28;20378;-81
2024/04/03 08:41:04;;;;;;;0.50;0.30;;;;;;;;;;5037492;28;20383;-79
2024/04/03 08:43:29;;;;;;;0.55;0.40;;;12.60;99.90;;;;;;5034479;28;20805;-82
2024/04/03 08:45:56;;;;;;;0.93;0.60;;;12.10;99.90;;;;;;5038464;28;20393;-82
2024/04/03 08:48:22;;;;;;;1.00;0.40;;;12.40;99.90;;;;;;5038919;28;20419;-81
2024/04/03 08:50:55;;;;;;;0.60;0.50;;;12.70;99.90;;;;;;5055856;28;20481;-81
2024/04/03 08:53:22;;;;;;;2.30;0.60;;;12.50;99.90;;;;;;5038269;28;20386;-81
2024/04/03 08:55:49;;;;;;;0.80;0.40;;;12.50;99.90;;;;;;5037738;28;20386;-81
2024/04/03 08:58:16;;;;;;;1.13;0.38;;;12.20;99.90;;;;;;5038772;28;20386;-82
2024/04/03 09:00:43;;;;;;;0.95;0.50;;;12.20;99.90;;;;;;5045928;28;20397;-80
2024/04/03 09:03:11;;;;;;;0.60;0.40;;;12.30;99.90;;;;;;5046826;28;20389;-81
2024/04/03 09:05:37;;;;;;;0.50;0.40;;;;;;;;;;5045556;28;20392;-81
2024/04/03 09:08:05;;;;;;;0.70;0.50;;;12.40;99.90;;;;;;5026782;28;20392;-79
2024/04/03 09:10:38;;;;;;;0.50;0.40;;;11.70;99.90;;;;;;5044807;28;20401;-79
2024/04/03 09:13:07;;;;;;;0.57;0.45;;;;;;;;;;5040915;28;20452;-80
2024/04/03 09:15:33;;;;;;;0.60;0.40;;;;;;;;;;5038801;28;20404;-83
2024/04/03 09:18:09;;;;;;;0.63;0.40;;;;;;;;;;5038998;28;20893;-80
2024/04/03 09:20:38;;;;;;;0.70;0.40;;;11.70;99.90;;;;;;5055580;28;20822;-80
2024/04/03 09:23:07;;;;;;;0.60;0.45;;;11.80;99.90;;;;;;5054343;28;20412;-80
2024/04/03 09:25:33;;;;;;;1.10;0.40;;;;;;;;;;5018235;28;20395;-82
2024/04/03 09:28:06;;;;;;;1.20;0.40;;;11.70;99.90;;;;;;5051498;28;20426;-82
2024/04/03 09:30:33;;;;;;;1.70;0.57;;;12.10;99.90;;;;;;5061983;28;20440;-82
2024/04/03 09:33:04;;;;;;;2.20;0.40;;;12.50;99.90;;;;;;5040121;28;20392;-82
2024/04/03 09:35:31;;;;;;;2.45;0.50;;;;;;;;;;5039337;28;20485;-84
2024/04/03 09:37:57;;;;;;;0.63;0.40;;;11.90;99.90;;;;;;5054691;28;20386;-81
2024/04/03 09:40:25;;;;;;;0.60;0.40;;;12.00;99.90;;;;;;5046602;28;20834;-82
2024/04/03 09:43:02;;;;;;;1.15;0.40;;;12.10;99.90;;;;;;5034501;28;20391;-82
2024/04/03 09:45:28;;;;;;;1.30;0.60;;;;;;;;;;5040399;28;20392;-83
2024/04/03 09:48:01;;;;;;;0.70;0.40;;;11.80;99.90;;;;;;5054043;28;20378;-82
2024/04/03 09:50:34;;;;;;;0.55;0.40;;;12.10;99.90;;;;;;5055440;28;20432;-84
2024/04/03 09:53:01;;;;;;;0.70;0.60;;;12.40;99.90;;;;;;5055430;28;20508;-84
2024/04/03 09:55:28;;;;;;;0.88;0.50;;;12.50;99.90;;;;;;5037373;28;20423;-83
2024/04/03 09:58:10;;;;;;;0.80;0.40;;;12.50;99.90;;;;;;5036841;28;20386;-84
2024/04/03 10:00:37;;;;;;;0.80;0.55;;;11.40;99.90;;;;;;5037191;28;20381;-84
2024/04/03 10:03:03;;;;;;;0.60;0.40;;;12.40;99.90;;;;;;5032216;28;20735;-84
2024/04/03 10:05:36;;;;;;;0.80;0.60;;;12.30;99.90;;;;;;5052234;28;20387;-83
2024/04/03 10:08:12;;;;;;;0.85;0.50;;;12.50;99.90;;;;;;5037343;28;20410;-82
2024/04/03 10:10:47;;;;;;;0.60;0.30;;;12.80;99.90;;;;;;5041152;28;20438;-83
2024/04/03 10:13:22;;;;;;;0.60;0.50;;;12.70;99.90;;;;;;5040158;28;20466;-82
2024/04/03 10:16:01;;;;;;;0.50;0.40;;;12.80;99.90;;;;;;5035986;28;20398;-82
2024/04/03 10:18:28;;;;;;;0.55;0.50;;;11.90;99.90;;;;;;5037423;28;20394;-81
2024/04/03 10:20:56;;;;;;;0.80;0.50;;;12.50;99.90;;;;;;5041426;28;20817;-84
2024/04/03 10:23:22;;;;;;;0.60;0.50;;;;;;;;;;5033127;28;20403;-83
2024/04/03 10:25:48;;;;;;;0.50;0.40;;;13.50;99.90;;;;;;5023671;28;20665;-84
2024/04/03 10:28:14;;;;;;;0.40;0.30;;;11.90;99.90;;;;;;5024645;28;20383;-83
2024/04/03 10:30:40;;;;;;;0.90;0.50;;;12.10;99.90;;;;;;5023462;28;20474;-85
2024/04/03 10:33:06;;;;;;;0.60;0.43;;;;;;;;;;5026683;28;20822;-83
2024/04/03 10:35:32;;;;;;;0.70;0.50;;;11.90;99.90;;;;;;5027160;28;20417;-83
2024/04/03 10:37:58;;;;;;;1.00;0.40;;;11.90;99.90;;;;;;5045824;28;20443;-83
2024/04/03 10:40:25;;;;;;;1.10;0.40;;;10.90;99.90;;;;;;5041142;28;20391;-83
2024/04/03 10:42:51;;;;;;;1.00;0.40;;;;;;;;;;5036989;28;20387;-82
2024/04/03 10:45:17;;;;;;;0.50;0.40;;;;;;;;;;5037776;28;20447;-83
2024/04/03 10:47:43;;;;;;;0.80;0.80;;;;;;;;;;5032824;28;20395;-83
2024/04/03 10:50:10;;;;;;;0.47;0.30;;;12.20;99.90;;;;;;5036280;28;20496;-81
2024/04/03 10:52:36;;;;;;;0.90;0.50;;;;;;;;;;5021215;28;20383;-83
2024/04/03 10:55:02;;;;;;;0.77;0.40;;;;;;;;;;5042005;28;20430;-81
2024/04/03 10:57:28;;;;;;;0.60;0.40;;;;;;;;;;5039292;28;20375;-81
2024/04/03 10:59:57;;;;;;;0.90;0.40;;;;;;;;;;5050317;28;20400;-81
2024/04/03 11:02:23;;;;;;;0.47;0.40;;;12.00;99.90;;;;;;5060935;28;20393;-80
2024/04/03 11:04:49;;;;;;;0.50;0.30;;;;;;;;;;5059968;28;20416;-81
2024/04/03 11:07:15;;;;;;;0.70;0.50;;;11.50;99.90;;;;;;5042356;28;20738;-80
2024/04/03 11:09:40;;;;;;;0.80;0.53;;;11.60;99.90;;;;;;5061002;28;20408;-83
2024/04/03 11:12:12;;;;;;;0.60;0.40;;;11.30;99.90;;;;;;5046525;28;20389;-81
2024/04/03 11:14:38;;;;;;;0.70;0.40;;;;;;;;;;5066235;28;20772;-83
2024/04/03 11:17:07;;;;;;;1.13;0.60;;;;;;;;;;5067190;28;20385;-83
2024/04/03 11:19:42;;;;;;;0.50;0.40;;;11.50;99.90;;;;;;5048293;28;20385;-80
2024/04/03 11:22:07;;;;;;;0.50;0.40;;;11.90;99.90;;;;;;5067731;28;20424;-78
2024/04/03 11:24:33;;;;;;;0.60;0.30;;;12.10;99.90;;;;;;5035929;28;20399;-79
2024/04/03 11:26:59;;;;;;;0.52;0.30;;;;;;;;;;5045756;28;20421;-82
2024/04/03 11:29:35;;;;;;;0.60;0.40;;;;;;;;;;5045268;28;20471;-80
2024/04/03 11:32:01;;;;;;;0.83;0.40;;;;;;;;;;5047751;28;20381;-81
2024/04/03 11:34:28;;;;;;;0.60;0.40;;;;;;;;;;5065384;28;20377;-80
2024/04/03 11:36:57;;;;;;;0.55;0.40;;;12.40;99.90;;;;;;5040708;28;20381;-79
2024/04/03 11:39:24;;;;;;;0.60;0.43;;;;;;;;;;5066492;28;20397;-79
2024/04/03 11:41:49;;;;;;;2.00;0.30;;;12.50;99.90;;;;;;5047312;28;20392;-81
2024/04/03 11:44:15;;;;;;;0.53;0.30;;;;;;;;;;5045693;28;20397;-79
2024/04/03 11:46:42;;;;;;;0.50;0.30;;;12.90;99.90;;;;;;5043158;28;20757;-81
2024/04/03 11:49:08;;;;;;;0.63;0.40;;;12.90;99.90;;;;;;5060781;28;20425;-79
2024/04/03 11:51:33;;;;;;;0.50;0.50;;;13.00;99.90;;;;;;5058939;28;20393;-80
2024/04/03 11:53:59;;;;;;;0.60;0.30;;;;;;;;;;5041981;28;20388;-79
2024/04/03 11:56:29;;;;;;;1.20;0.40;;;12.60;99.90;;;;;;5060030;28;20481;-82
2024/04/03 11:58:55;;;;;;;1.80;0.40;;;12.90;99.90;;;;;;5066137;28;20433;-79
2024/04/03 12:01:21;;;;;;;0.50;0.30;;;12.80;99.90;;;;;;5047737;28;20421;-81
2024/04/03 12:03:47;;;;;;;0.63;0.40;;;13.40;99.90;;;;;;5051636;28;20476;-81
2024/04/03 12:06:12;;;;;;;0.80;0.40;;;13.10;99.90;;;;;;5049205;28;20443;-81
2024/04/03 12:08:38;;;;;;;0.40;0.30;;;13.30;99.90;;;;;;5049540;28;20393;-79
2024/04/03 12:11:06;;;;;;;0.50;0.40;;;;;;;;;;5055072;28;20407;-82
2024/04/03 12:13:32;;;;;;;0.60;0.30;;;12.50;99.90;;;;;;5027784;28;20675;-80
2024/04/03 12:16:01;;;;;;;0.95;0.40;;;;;;;;;;5027631;28;20399;-80
2024/04/03 12:18:37;;;;;;;0.60;0.40;;;;;;;;;;5045792;28;20383;-80
2024/04/03 12:21:08;;;;;;;1.20;0.40;;;12.30;99.90;;;;;;5042440;28;20434;-79
2024/04/03 12:23:34;;;;;;;1.40;0.40;;;;;;;;;;5041591;28;20395;-82
2024/04/03 12:25:59;;;;;;;0.55;0.40;;;12.80;99.90;;;;;;5024363;28;20902;-80
2024/04/03 12:28:25;;;;;;;0.50;0.40;;;11.80;99.90;;;;;;5044944;28;20390;-81
2024/04/03 12:30:51;;;;;;;0.70;0.40;;;12.50;99.90;;;;;;5028212;28;20482;-80
2024/04/03 12:33:17;;;;;;;0.55;0.40;;;12.30;99.90;;;;;;5027321;28;20387;-80
2024/04/03 12:35:43;;;;;;;1.50;0.40;;;12.10;99.90;;;;;;5037529;28;20424;-81
2024/04/03 12:38:11;;;;;;;0.70;0.40;;;11.30;99.90;;;;;;5025417;28;20421;-81
2024/04/03 12:40:37;;;;;;;0.80;0.50;;;10.10;99.90;;;;;;5047233;28;20457;-82
2024/04/03 12:43:03;;;;;;;1.50;0.50;;;11.30;99.90;;;;;;5037116;28;20443;-84
2024/04/03 12:45:29;;;;;;;0.90;0.50;;;;;;;;;;5017144;28;20794;-78
2024/04/03 12:47:54;;;;;;;0.80;0.60;;;11.00;99.90;;;;;;5021206;28;20421;-79
2024/04/03 12:50:20;;;;;;;1.40;0.53;;;11.10;99.90;;;;;;5057728;28;20401;-82
2024/04/03 12:52:46;;;;;;;1.40;0.40;;;;;;;;;;5027405;28;20379;-81
2024/04/03 12:55:12;;;;;;;0.70;0.40;;;;;;;;;;5023001;28;20406;-83
2024/04/03 12:57:37;;;;;;;1.40;0.68;;;11.30;99.90;;;;;;5045770;28;20937;-82
2024/04/03 13:00:04;;;;;;;1.33;0.57;;;10.60;99.90;;;;;;5045161;28;20454;-82
2024/04/03 13:02:30;;;;;;;2.10;0.60;;;11.20;99.90;;;;;;5061894;28;20658;-81
2024/04/03 13:04:57;;;;;;;0.90;0.60;;;;;;;;;;5057947;28;20400;-80
2024/04/03 13:07:22;;;;;;;2.03;0.75;;;10.50;99.90;;;;;;5036976;28;20384;-82
2024/04/03 13:09:48;;;;;;;1.45;0.80;;;11.10;99.90;;;;;;5036272;28;20486;-82
2024/04/03 13:12:13;;;;;;;0.70;0.60;;;10.40;99.90;;;;;;5035855;28;20453;-82
2024/04/03 13:14:39;;;;;;;1.10;0.80;;;10.70;99.90;;;;;;5035799;28;20379;-83
2024/04/03 13:17:05;;;;;;;1.13;0.70;;;;;;;;;;5033182;28;20379;-82
2024/04/03 13:19:30;;;;;;;0.90;0.50;;;10.80;99.90;;;;;;5036230;28;20397;-82
2024/04/03 13:21:56;;;;;;;0.67;0.60;;;10.90;99.90;;;;;;5037490;28;20400;-83
2024/04/03 13:24:23;;;;;;;0.55;0.55;;;;;;;;;;5042711;28;20403;-82
2024/04/03 13:26:48;;;;;;;0.90;0.60;;;11.30;99.90;;;;;;5020297;28;20430;-82